createdAt,value
2023-01-09T00:02:22.704Z,96626.13
2023-01-09T00:04:55.058Z,96619.89
2023-01-09T00:07:27.508Z,96618.97
2023-01-09T00:09:59.558Z,96609.92
2023-01-09T00:12:32.458Z,96602.39
2023-01-09T00:15:04.507Z,96605.66
2023-01-09T00:17:36.794Z,96606.00
2023-01-09T00:20:11.574Z,96609.00
2023-01-09T00:22:43.973Z,96606.93
2023-01-09T00:25:15.956Z,96598.54
2023-01-09T00:27:50.728Z,96596.41
2023-01-09T00:30:23.107Z,96598.14
2023-01-09T00:32:55.974Z,96596.67
2023-01-09T00:35:29.646Z,96586.40
2023-01-09T00:38:00.120Z,96582.98
2023-01-09T00:40:33.554Z,96579.63
2023-01-09T00:43:05.789Z,96573.66
2023-01-09T00:45:37.815Z,96577.33
2023-01-09T00:48:13.137Z,96576.13
2023-01-09T00:50:49.312Z,96576.27
2023-01-09T00:53:24.945Z,96572.56
2023-01-09T00:55:59.261Z,96571.86
2023-01-09T00:58:31.912Z,96576.22
2023-01-09T01:01:04.227Z,96583.94
2023-01-09T01:03:36.496Z,96578.61
2023-01-09T01:06:27.651Z,96582.81
2023-01-09T01:08:59.675Z,96577.73
2023-01-09T01:11:32.840Z,96572.98
2023-01-09T01:14:05.414Z,96568.05
2023-01-09T01:16:37.924Z,96572.70
2023-01-09T01:19:10.151Z,96573.25
2023-01-09T01:21:42.707Z,96566.48
2023-01-09T01:24:18.477Z,96567.30
2023-01-09T01:26:50.953Z,96564.14
2023-01-09T01:29:23.324Z,96563.35
2023-01-09T01:31:56.387Z,96560.80
2023-01-09T01:34:30.150Z,96553.89
2023-01-09T01:37:00.443Z,96560.70
2023-01-09T01:39:32.565Z,96550.69
2023-01-09T01:42:06.526Z,96554.91
2023-01-09T01:45:10.554Z,96545.09
2023-01-09T01:47:52.285Z,96545.79
2023-01-09T01:50:31.896Z,96532.59
2023-01-09T01:53:15.291Z,96530.50
2023-01-09T01:55:50.186Z,96531.17
2023-01-09T01:58:24.179Z,96533.16
2023-01-09T02:00:56.870Z,96539.13
2023-01-09T02:03:31.525Z,96534.69
2023-01-09T02:06:05.263Z,96529.20
2023-01-09T02:08:35.637Z,96511.89
2023-01-09T02:11:09.357Z,96510.80
2023-01-09T02:13:40.859Z,96519.27
2023-01-09T02:16:26.224Z,96514.45
2023-01-09T02:19:06.545Z,96513.27
2023-01-09T02:21:49.505Z,96518.30
2023-01-09T02:24:38.166Z,96510.77
2023-01-09T02:27:56.882Z,96514.67
2023-01-09T02:30:42.324Z,96514.42
2023-01-09T02:33:30.407Z,96519.82
2023-01-09T02:36:25.104Z,96513.18
2023-01-09T02:39:09.808Z,96513.38
2023-01-09T02:41:47.634Z,96507.17
2023-01-09T02:44:25.629Z,96510.33
2023-01-09T02:47:09.015Z,96502.94
2023-01-09T02:49:44.414Z,96510.70
2023-01-09T02:52:33.608Z,96508.67
2023-01-09T02:55:12.656Z,96509.84
2023-01-09T02:57:59.135Z,96507.64
2023-01-09T03:00:44.767Z,96507.37
2023-01-09T03:03:25.488Z,96505.90
2023-01-09T03:06:06.128Z,96507.23
2023-01-09T03:08:43.294Z,96520.98
2023-01-09T03:11:15.593Z,96521.75
2023-01-09T03:13:51.559Z,96521.63
2023-01-09T03:16:28.620Z,96514.11
2023-01-09T03:19:04.216Z,96518.45
2023-01-09T03:21:37.629Z,96517.03
2023-01-09T03:24:10.387Z,96526.70
2023-01-09T03:26:42.790Z,96527.72
2023-01-09T03:29:15.027Z,96534.46
2023-01-09T03:31:48.175Z,96532.79
2023-01-09T03:34:20.544Z,96525.36
2023-01-09T03:36:54.067Z,96519.77
2023-01-09T03:39:26.040Z,96523.21
2023-01-09T03:41:58.228Z,96523.64
2023-01-09T03:44:30.942Z,96519.00
2023-01-09T03:47:03.342Z,96507.52
2023-01-09T03:49:35.346Z,96499.27
2023-01-09T03:52:08.013Z,96502.67
2023-01-09T03:54:39.986Z,96494.22
2023-01-09T03:57:12.189Z,96493.77
2023-01-09T03:59:44.027Z,96489.84
2023-01-09T04:02:16.607Z,96480.06
2023-01-09T04:04:48.724Z,96481.77
2023-01-09T04:07:20.868Z,96484.67
2023-01-09T04:09:52.748Z,96479.21
2023-01-09T04:12:24.948Z,96469.55
2023-01-09T04:14:57.559Z,96462.85
2023-01-09T04:17:29.586Z,96458.72
2023-01-09T04:20:01.621Z,96446.80
2023-01-09T04:22:33.900Z,96457.16
2023-01-09T04:25:06.262Z,96455.44
2023-01-09T04:27:38.519Z,96452.16
2023-01-09T04:30:12.776Z,96451.41
2023-01-09T04:32:44.847Z,96444.52
2023-01-09T04:35:16.909Z,96442.67
2023-01-09T04:37:49.433Z,96439.09
2023-01-09T04:40:21.853Z,96439.27
2023-01-09T04:42:54.047Z,96436.06
2023-01-09T04:45:26.098Z,96427.90
2023-01-09T04:47:58.446Z,96430.16
2023-01-09T04:50:31.421Z,96425.91
2023-01-09T04:53:03.747Z,96422.39
2023-01-09T04:55:35.925Z,96424.50
2023-01-09T04:58:07.999Z,96422.66
2023-01-09T05:00:40.051Z,96417.33
2023-01-09T05:03:12.449Z,96413.52
2023-01-09T05:05:44.438Z,96411.77
2023-01-09T05:08:16.617Z,96414.33
2023-01-09T05:10:48.946Z,96412.78
2023-01-09T05:13:21.109Z,96413.29
2023-01-09T05:15:53.245Z,96414.16
2023-01-09T05:18:25.598Z,96413.98
2023-01-09T05:20:57.666Z,96418.39
2023-01-09T05:23:29.762Z,96410.58
2023-01-09T05:26:01.726Z,96408.86
2023-01-09T05:28:34.274Z,96405.60
2023-01-09T05:31:06.545Z,96408.15
2023-01-09T05:33:38.757Z,96402.30
2023-01-09T05:36:11.537Z,96397.33
2023-01-09T05:38:44.018Z,96401.73
2023-01-09T05:41:15.929Z,96400.34
2023-01-09T05:43:48.485Z,96398.68
2023-01-09T05:46:20.827Z,96395.76
2023-01-09T05:48:54.496Z,96395.52
2023-01-09T05:51:26.527Z,96395.90
2023-01-09T05:53:58.609Z,96400.88
2023-01-09T05:56:31.147Z,96395.77
2023-01-09T05:59:03.467Z,96393.10
2023-01-09T06:01:35.745Z,96392.20
2023-01-09T06:04:08.298Z,96383.05
2023-01-09T06:06:41.356Z,96384.45
2023-01-09T06:09:13.474Z,96384.97
2023-01-09T06:11:45.751Z,96385.43
2023-01-09T06:14:17.971Z,96388.68
2023-01-09T06:16:51.149Z,96391.40
2023-01-09T06:19:23.554Z,96389.88
2023-01-09T06:21:56.079Z,96393.94
2023-01-09T06:24:28.238Z,96392.43
2023-01-09T06:27:00.585Z,96384.02
2023-01-09T06:29:32.846Z,96383.71
2023-01-09T06:32:05.264Z,96386.42
2023-01-09T06:34:37.675Z,96389.34
2023-01-09T06:37:09.607Z,96396.59
2023-01-09T06:39:41.719Z,96390.68
2023-01-09T06:42:13.846Z,96391.94
2023-01-09T06:44:46.167Z,96387.23
2023-01-09T06:47:19.504Z,96376.92
2023-01-09T06:49:52.026Z,96379.05
2023-01-09T06:52:24.187Z,96378.21
2023-01-09T06:54:56.698Z,96380.71
2023-01-09T06:57:29.197Z,96373.37
2023-01-09T07:00:01.694Z,96373.90
2023-01-09T07:02:33.799Z,96374.31
2023-01-09T07:05:08.783Z,96373.88
2023-01-09T07:07:41.440Z,96378.08
2023-01-09T07:10:15.822Z,96372.52
2023-01-09T07:12:48.234Z,96368.91
2023-01-09T07:15:20.831Z,96361.27
2023-01-09T07:17:54.627Z,96362.55
2023-01-09T07:20:26.928Z,96362.02
2023-01-09T07:22:59.077Z,96354.46
2023-01-09T07:25:34.308Z,96350.48
2023-01-09T07:28:07.755Z,96344.98
2023-01-09T07:30:38.247Z,96344.48
2023-01-09T07:33:10.572Z,96339.98
2023-01-09T07:35:44.593Z,96347.91
2023-01-09T07:38:19.226Z,96344.71
2023-01-09T07:40:51.466Z,96350.55
2023-01-09T07:43:23.598Z,96352.48
2023-01-09T07:45:55.825Z,96356.35
2023-01-09T07:48:28.472Z,96359.05
2023-01-09T07:51:00.917Z,96364.01
2023-01-09T07:53:32.979Z,96361.65
2023-01-09T07:56:05.257Z,96361.00
2023-01-09T07:58:37.485Z,96354.81
2023-01-09T08:01:10.036Z,96359.36
2023-01-09T08:03:42.196Z,96351.90
2023-01-09T08:06:14.212Z,96361.91
2023-01-09T08:08:49.467Z,96360.77
2023-01-09T08:11:21.809Z,96359.66
2023-01-09T08:13:54.640Z,96363.95
2023-01-09T08:16:26.744Z,96368.66
2023-01-09T08:18:58.987Z,96360.65
2023-01-09T08:21:31.789Z,96359.06
2023-01-09T08:24:03.863Z,96357.94
2023-01-09T08:26:35.966Z,96351.27
2023-01-09T08:29:08.336Z,96347.45
2023-01-09T08:31:40.495Z,96346.16
2023-01-09T08:34:12.446Z,96351.23
2023-01-09T08:36:44.595Z,96348.65
2023-01-09T08:39:16.870Z,96346.34
2023-01-09T08:42:06.161Z,96346.27
2023-01-09T08:44:55.669Z,96341.96
2023-01-09T08:47:33.552Z,96345.64
2023-01-09T08:50:06.012Z,96344.25
2023-01-09T08:52:38.509Z,96344.03
2023-01-09T08:55:11.592Z,96342.55
2023-01-09T08:57:50.921Z,96346.22
2023-01-09T09:00:26.263Z,96343.14
2023-01-09T09:03:00.028Z,96340.59
2023-01-09T09:05:33.834Z,96343.06
2023-01-09T09:08:04.466Z,96341.53
2023-01-09T09:10:36.731Z,96344.27
2023-01-09T09:13:09.199Z,96351.14
2023-01-09T09:15:41.343Z,96349.79
2023-01-09T09:18:13.562Z,96351.99
2023-01-09T09:20:45.736Z,96349.95
2023-01-09T09:23:18.018Z,96347.67
2023-01-09T09:25:50.967Z,96341.33
2023-01-09T09:28:23.720Z,96339.35
2023-01-09T09:30:55.757Z,96333.55
2023-01-09T09:33:28.210Z,96329.66
2023-01-09T09:36:01.677Z,96329.52
2023-01-09T09:38:33.900Z,96326.01
2023-01-09T09:41:41.374Z,96324.61
2023-01-09T09:44:53.397Z,96318.80
2023-01-09T09:47:45.335Z,96316.15
2023-01-09T09:50:37.758Z,96312.01
2023-01-09T09:53:17.973Z,96304.39
2023-01-09T09:55:52.570Z,96300.75
2023-01-09T09:58:33.337Z,96303.01
2023-01-09T10:01:06.263Z,96299.73
2023-01-09T10:03:45.036Z,96291.75
2023-01-09T10:06:23.687Z,96294.64
2023-01-09T10:09:04.058Z,96288.85
2023-01-09T10:11:41.308Z,96288.70
2023-01-09T10:14:23.633Z,96286.08
2023-01-09T10:17:20.279Z,96280.27
2023-01-09T10:20:09.303Z,96286.57
2023-01-09T10:22:50.447Z,96289.25
2023-01-09T10:25:29.258Z,96286.99
2023-01-09T10:28:17.834Z,96282.75
2023-01-09T10:30:52.397Z,96279.48
2023-01-09T10:33:44.667Z,96273.70
2023-01-09T10:36:46.690Z,96271.05
2023-01-09T10:39:24.553Z,96264.98
2023-01-09T10:42:04.407Z,96262.89
2023-01-09T10:44:41.819Z,96260.75
2023-01-09T10:47:19.678Z,96255.23
2023-01-09T10:49:54.148Z,96254.02
2023-01-09T10:52:31.529Z,96246.63
2023-01-09T10:55:15.246Z,96242.81
2023-01-09T10:57:50.787Z,96242.56
2023-01-09T11:00:25.711Z,96247.84
2023-01-09T11:02:58.132Z,96244.32
2023-01-09T11:05:32.945Z,96238.71
2023-01-09T11:08:13.210Z,96239.39
2023-01-09T11:10:53.566Z,96232.86
2023-01-09T11:13:29.548Z,96227.88
2023-01-09T11:16:07.806Z,96227.97
2023-01-09T11:18:42.218Z,96224.45
2023-01-09T11:21:27.706Z,96224.12
2023-01-09T11:24:18.628Z,96220.58
2023-01-09T11:26:52.726Z,96217.88
2023-01-09T11:29:25.896Z,96215.73
2023-01-09T11:31:58.518Z,96216.95
2023-01-09T11:34:33.275Z,96215.94
2023-01-09T11:37:09.464Z,96215.35
2023-01-09T11:39:48.586Z,96212.95
2023-01-09T11:42:45.463Z,96212.89
2023-01-09T11:45:22.956Z,96211.86
2023-01-09T11:47:55.557Z,96212.92
2023-01-09T11:50:30.578Z,96212.78
2023-01-09T11:53:19.911Z,96216.99
2023-01-09T11:55:59.496Z,96219.11
2023-01-09T11:58:35.507Z,96212.77
2023-01-09T12:01:25.988Z,96211.27
2023-01-09T12:04:19.622Z,96210.38
2023-01-09T12:07:04.267Z,96216.44
2023-01-09T12:09:44.643Z,96214.11
2023-01-09T12:12:28.000Z,96210.48
2023-01-09T12:15:10.808Z,96210.88
2023-01-09T12:18:00.628Z,96212.24
2023-01-09T12:20:48.606Z,96208.81
2023-01-09T12:23:45.235Z,96208.67
2023-01-09T12:26:22.138Z,96205.11
2023-01-09T12:29:19.060Z,96207.02
2023-01-09T12:32:25.514Z,96204.55
2023-01-09T12:35:08.982Z,96203.72
2023-01-09T12:37:56.308Z,96201.13
2023-01-09T12:40:46.803Z,96203.88
2023-01-09T12:43:28.587Z,96207.52
2023-01-09T12:46:13.187Z,96211.97
2023-01-09T12:49:00.607Z,96208.08
2023-01-09T12:51:37.150Z,96212.65
2023-01-09T12:54:16.826Z,96208.69
2023-01-09T12:56:54.501Z,96208.10
2023-01-09T12:59:33.295Z,96207.31
2023-01-09T13:02:18.373Z,96209.60
2023-01-09T13:05:00.682Z,96210.36
2023-01-09T13:07:39.645Z,96208.13
2023-01-09T13:10:21.943Z,96198.58
2023-01-09T13:12:56.050Z,96195.35
2023-01-09T13:15:34.276Z,96192.23
2023-01-09T13:18:13.486Z,96188.63
2023-01-09T13:20:49.746Z,96192.33
2023-01-09T13:23:30.159Z,96193.88
2023-01-09T13:26:05.567Z,96195.22
2023-01-09T13:28:47.337Z,96194.71
2023-01-09T13:31:52.098Z,96196.52
2023-01-09T13:34:26.690Z,96194.16
2023-01-09T13:37:00.710Z,96194.81
2023-01-09T13:39:35.487Z,96201.96
2023-01-09T13:42:26.635Z,96202.67
2023-01-09T13:45:10.690Z,96203.70
2023-01-09T13:47:43.160Z,96208.82
2023-01-09T13:50:29.079Z,96213.13
2023-01-09T13:53:36.127Z,96219.93
2023-01-09T13:56:09.638Z,96217.77
2023-01-09T13:59:04.101Z,96219.55
2023-01-09T14:01:48.215Z,96214.06
2023-01-09T14:04:53.328Z,96221.92
2023-01-09T14:07:29.868Z,96227.16
2023-01-09T14:10:04.001Z,96229.39
2023-01-09T14:12:43.533Z,96227.89
2023-01-09T14:15:29.771Z,96232.80
2023-01-09T14:18:06.118Z,96234.05
2023-01-09T14:20:42.248Z,96237.81
2023-01-09T14:23:45.988Z,96239.45
2023-01-09T14:26:22.475Z,96234.71
2023-01-09T14:29:14.866Z,96237.42
2023-01-09T14:31:47.054Z,96242.52
2023-01-09T14:34:32.047Z,96248.30
2023-01-09T14:37:05.008Z,96252.84
2023-01-09T14:39:41.596Z,96257.05
2023-01-09T14:42:22.893Z,96262.71
2023-01-09T14:45:01.152Z,96264.73
2023-01-09T14:47:47.234Z,96264.67
2023-01-09T14:50:26.563Z,96267.56
2023-01-09T14:53:06.439Z,96270.08
2023-01-09T14:55:51.384Z,96268.39
2023-01-09T14:58:26.520Z,96260.48
2023-01-09T15:01:03.644Z,96261.35
2023-01-09T15:03:40.092Z,96263.56
2023-01-09T15:06:17.122Z,96261.50
2023-01-09T15:08:52.011Z,96262.27
2023-01-09T15:11:24.529Z,96263.70
2023-01-09T15:14:00.374Z,96260.83
2023-01-09T15:16:33.043Z,96265.99
2023-01-09T15:19:08.534Z,96265.11
2023-01-09T15:21:40.876Z,96271.92
2023-01-09T15:24:22.441Z,96272.95
2023-01-09T15:26:58.051Z,96274.90
2023-01-09T15:29:30.697Z,96274.92
2023-01-09T15:32:09.611Z,96281.61
2023-01-09T15:34:45.300Z,96283.23
2023-01-09T15:37:35.516Z,96290.00
2023-01-09T15:40:22.013Z,96293.60
2023-01-09T15:42:58.490Z,96299.44
2023-01-09T15:45:33.192Z,96300.47
2023-01-09T15:48:23.633Z,96306.30
2023-01-09T15:50:59.204Z,96312.49
2023-01-09T15:53:31.897Z,96315.61
2023-01-09T15:56:20.435Z,96317.96
2023-01-09T15:58:54.224Z,96318.11
2023-01-09T16:01:31.672Z,96319.06
2023-01-09T16:04:10.232Z,96322.79
2023-01-09T16:06:50.435Z,96329.47
2023-01-09T16:09:25.888Z,96331.21
2023-01-09T16:12:01.890Z,96332.73
2023-01-09T16:14:38.801Z,96332.91
2023-01-09T16:17:17.243Z,96333.45
2023-01-09T16:19:52.275Z,96335.72
2023-01-09T16:22:28.351Z,96339.35
2023-01-09T16:25:03.941Z,96342.65
2023-01-09T16:27:36.487Z,96348.91
2023-01-09T16:30:27.064Z,96351.67
2023-01-09T16:32:59.851Z,96354.61
2023-01-09T16:35:31.865Z,96351.73
2023-01-09T16:38:04.095Z,96351.98
2023-01-09T16:40:36.723Z,96351.45
2023-01-09T16:43:14.853Z,96354.70
2023-01-09T16:45:47.442Z,96358.45
2023-01-09T16:48:22.992Z,96356.55
2023-01-09T16:50:55.167Z,96353.48
2023-01-09T16:53:32.133Z,96356.61
2023-01-09T16:56:04.656Z,96362.09
2023-01-09T16:58:38.749Z,96366.95
2023-01-09T17:01:13.792Z,96371.94
2023-01-09T17:03:45.905Z,96375.82
2023-01-09T17:06:21.589Z,96372.30
2023-01-09T17:08:54.075Z,96378.52
2023-01-09T17:11:31.796Z,96377.96
2023-01-09T17:14:05.487Z,96378.17
2023-01-09T17:16:37.573Z,96387.42
2023-01-09T17:19:15.439Z,96387.23
2023-01-09T17:21:47.617Z,96391.44
2023-01-09T17:24:37.416Z,96392.52
2023-01-09T17:27:28.652Z,96400.17
2023-01-09T17:30:03.009Z,96405.39
2023-01-09T17:32:37.969Z,96406.85
2023-01-09T17:35:11.305Z,96409.63
2023-01-09T17:37:43.738Z,96408.54
2023-01-09T17:40:21.834Z,96403.67
2023-01-09T17:42:54.092Z,96407.77
2023-01-09T17:45:27.265Z,96407.63
2023-01-09T17:47:59.604Z,96412.48
2023-01-09T17:50:34.931Z,96422.98
2023-01-09T17:53:07.682Z,96421.50
2023-01-09T17:55:40.493Z,96425.00
2023-01-09T17:58:27.562Z,96426.09
2023-01-09T18:01:00.531Z,96437.59
2023-01-09T18:03:34.656Z,96442.27
2023-01-09T18:06:07.786Z,96443.98
2023-01-09T18:08:41.154Z,96443.11
2023-01-09T18:11:18.073Z,96449.66
2023-01-09T18:13:51.937Z,96452.99
2023-01-09T18:16:25.973Z,96454.73
2023-01-09T18:18:59.403Z,96453.27
2023-01-09T18:21:32.794Z,96453.44
2023-01-09T18:24:06.341Z,96452.73
2023-01-09T18:26:36.821Z,96452.03
2023-01-09T18:29:10.357Z,96456.24
2023-01-09T18:31:42.822Z,96457.16
2023-01-09T18:34:14.925Z,96456.06
2023-01-09T18:36:47.543Z,96451.81
2023-01-09T18:39:19.813Z,96452.61
2023-01-09T18:41:51.896Z,96453.04
2023-01-09T18:44:24.347Z,96454.55
2023-01-09T18:46:56.692Z,96462.64
2023-01-09T18:49:29.043Z,96466.91
2023-01-09T18:52:00.974Z,96466.78
2023-01-09T18:54:33.248Z,96469.48
2023-01-09T18:57:05.555Z,96473.91
2023-01-09T18:59:38.243Z,96469.09
2023-01-09T19:02:19.167Z,96469.52
2023-01-09T19:04:51.456Z,96474.79
2023-01-09T19:07:23.688Z,96473.41
2023-01-09T19:09:55.969Z,96477.64
2023-01-09T19:12:28.187Z,96474.86
2023-01-09T19:15:00.980Z,96475.02
2023-01-09T19:17:34.379Z,96473.80
2023-01-09T19:20:07.850Z,96469.79
2023-01-09T19:22:40.043Z,96466.58
2023-01-09T19:25:12.893Z,96468.32
2023-01-09T19:27:47.245Z,96467.54
2023-01-09T19:30:21.105Z,96466.29
2023-01-09T19:32:59.640Z,96468.35
2023-01-09T19:35:33.196Z,96470.30
2023-01-09T19:38:06.163Z,96479.06
2023-01-09T19:40:50.657Z,96481.03
2023-01-09T19:43:28.887Z,96491.62
2023-01-09T19:46:01.994Z,96492.71
2023-01-09T19:48:34.237Z,96494.02
2023-01-09T19:51:07.922Z,96492.34
2023-01-09T19:53:41.031Z,96492.39
2023-01-09T19:56:18.053Z,96488.60
2023-01-09T19:58:54.789Z,96486.60
2023-01-09T20:01:28.920Z,96490.42
2023-01-09T20:04:05.207Z,96484.64
2023-01-09T20:06:41.892Z,96488.90
2023-01-09T20:09:15.378Z,96492.77
2023-01-09T20:11:49.753Z,96499.98
2023-01-09T20:14:23.514Z,96506.09
2023-01-09T20:17:00.511Z,96508.70
2023-01-09T20:19:33.705Z,96510.84
2023-01-09T20:22:10.280Z,96512.17
2023-01-09T20:24:42.800Z,96515.23
2023-01-09T20:27:16.057Z,96513.84
2023-01-09T20:29:48.892Z,96518.86
2023-01-09T20:32:21.288Z,96519.24
2023-01-09T20:34:55.406Z,96513.91
2023-01-09T20:37:27.630Z,96516.83
2023-01-09T20:40:00.684Z,96517.58
2023-01-09T20:42:34.207Z,96522.92
2023-01-09T20:45:08.588Z,96522.64
2023-01-09T20:47:41.286Z,96517.89
2023-01-09T20:50:16.257Z,96515.84
2023-01-09T20:52:48.752Z,96513.92
2023-01-09T20:55:21.978Z,96512.84
2023-01-09T20:57:54.170Z,96510.20
2023-01-09T21:00:32.427Z,96510.84
2023-01-09T21:03:05.355Z,96518.70
2023-01-09T21:05:41.547Z,96522.14
2023-01-09T21:08:13.675Z,96522.70
2023-01-09T21:10:45.740Z,96526.98
2023-01-09T21:13:17.857Z,96536.81
2023-01-09T21:15:50.027Z,96541.04
2023-01-09T21:18:22.117Z,96540.80
2023-01-09T21:20:54.538Z,96538.42
2023-01-09T21:23:26.616Z,96543.63
2023-01-09T21:25:59.908Z,96546.45
2023-01-09T21:28:32.380Z,96546.98
2023-01-09T21:31:04.826Z,96551.47
2023-01-09T21:33:37.075Z,96552.37
2023-01-09T21:36:11.826Z,96561.48
2023-01-09T21:38:46.106Z,96570.52
2023-01-09T21:41:38.084Z,96576.20
2023-01-09T21:44:31.595Z,96580.47
2023-01-09T21:47:04.827Z,96576.73
2023-01-09T21:49:40.597Z,96581.05
2023-01-09T21:52:13.938Z,96590.60
2023-01-09T21:54:46.433Z,96591.14
2023-01-09T21:57:19.047Z,96590.06
2023-01-09T21:59:51.146Z,96591.98
2023-01-09T22:02:23.848Z,96589.94
2023-01-09T22:05:00.406Z,96592.92
2023-01-09T22:07:33.148Z,96595.93
2023-01-09T22:10:05.563Z,96599.31
2023-01-09T22:12:37.630Z,96599.85
2023-01-09T22:15:10.871Z,96599.86
2023-01-09T22:17:41.560Z,96596.75
2023-01-09T22:20:15.205Z,96597.67
2023-01-09T22:22:45.419Z,96601.77
2023-01-09T22:25:17.852Z,96603.14
2023-01-09T22:27:49.859Z,96603.23
2023-01-09T22:30:21.992Z,96603.98
2023-01-09T22:32:54.189Z,96603.85
2023-01-09T22:35:26.466Z,96601.25
2023-01-09T22:37:58.667Z,96603.23
2023-01-09T22:40:30.743Z,96600.70
2023-01-09T22:43:02.814Z,96599.46
2023-01-09T22:45:35.320Z,96602.64
2023-01-09T22:48:08.015Z,96612.39
2023-01-09T22:50:40.034Z,96613.56
2023-01-09T22:53:12.178Z,96618.36
2023-01-09T22:55:44.395Z,96619.44
2023-01-09T22:58:26.391Z,96618.70
2023-01-09T23:00:59.665Z,96619.96
2023-01-09T23:03:31.802Z,96620.44
2023-01-09T23:06:08.642Z,96621.03
2023-01-09T23:08:41.293Z,96618.02
2023-01-09T23:11:16.030Z,96625.55
2023-01-09T23:13:48.177Z,96626.12
2023-01-09T23:16:20.275Z,96627.02
2023-01-09T23:18:52.306Z,96628.02
2023-01-09T23:21:24.787Z,96630.86
2023-01-09T23:23:56.842Z,96633.55
2023-01-09T23:26:29.108Z,96630.06
2023-01-09T23:29:01.144Z,96629.28
2023-01-09T23:31:33.224Z,96629.02
2023-01-09T23:34:08.369Z,96628.17
2023-01-09T23:36:40.593Z,96627.95
2023-01-09T23:39:12.808Z,96628.16
2023-01-09T23:42:02.636Z,96634.05
2023-01-09T23:44:36.524Z,96635.03
2023-01-09T23:47:08.639Z,96634.58
2023-01-09T23:49:40.710Z,96637.27
2023-01-09T23:52:12.842Z,96637.52
2023-01-09T23:54:44.938Z,96633.15
2023-01-09T23:57:17.014Z,96628.70
2023-01-09T23:59:49.201Z,96621.63
